sensor_id;sensor_type;location;lat;lon;timestamp;P1;durP1;ratioP1;P2;durP2;ratioP2
67757;SDS011;54562;47.620;18.786;2022-10-15T00:01:08;24.20;;;13.60;;
67757;SDS011;54562;47.620;18.786;2022-10-15T00:04:17;22.50;;;12.00;;
67757;SDS011;54562;47.620;18.786;2022-10-15T00:07:26;19.10;;;12.00;;
67757;SDS011;54562;47.620;18.786;2022-10-15T00:10:35;19.10;;;11.30;;
67757;SDS011;54562;47.620;18.786;2022-10-15T00:13:43;20.90;;;12.20;;
67757;SDS011;54562;47.620;18.786;2022-10-15T00:16:52;20.50;;;10.80;;
67757;SDS011;54562;47.620;18.786;2022-10-15T00:20:00;19.50;;;11.20;;
67757;SDS011;54562;47.620;18.786;2022-10-15T00:23:08;19.60;;;11.60;;
67757;SDS011;54562;47.620;18.786;2022-10-15T00:26:18;23.00;;;12.20;;
67757;SDS011;54562;47.620;18.786;2022-10-15T00:29:28;19.20;;;11.80;;
67757;SDS011;54562;47.620;18.786;2022-10-15T00:32:35;21.40;;;12.20;;
67757;SDS011;54562;47.620;18.786;2022-10-15T00:35:43;18.60;;;11.70;;
67757;SDS011;54562;47.620;18.786;2022-10-15T00:38:52;21.00;;;12.40;;
67757;SDS011;54562;47.620;18.786;2022-10-15T00:42:00;21.20;;;13.00;;
67757;SDS011;54562;47.620;18.786;2022-10-15T00:45:13;21.70;;;13.00;;
67757;SDS011;54562;47.620;18.786;2022-10-15T00:48:21;22.90;;;13.10;;
67757;SDS011;54562;47.620;18.786;2022-10-15T00:51:32;24.20;;;13.60;;
67757;SDS011;54562;47.620;18.786;2022-10-15T00:54:45;23.80;;;13.60;;
67757;SDS011;54562;47.620;18.786;2022-10-15T00:57:59;22.90;;;13.70;;
67757;SDS011;54562;47.620;18.786;2022-10-15T01:01:10;23.10;;;13.50;;
67757;SDS011;54562;47.620;18.786;2022-10-15T01:04:19;22.50;;;14.00;;
67757;SDS011;54562;47.620;18.786;2022-10-15T01:10:40;21.80;;;13.50;;
67757;SDS011;54562;47.620;18.786;2022-10-15T01:13:59;22.70;;;14.00;;
67757;SDS011;54562;47.620;18.786;2022-10-15T01:17:23;25.90;;;14.00;;
67757;SDS011;54562;47.620;18.786;2022-10-15T01:20:57;22.60;;;14.40;;
67757;SDS011;54562;47.620;18.786;2022-10-15T01:27:59;24.00;;;13.60;;
67757;SDS011;54562;47.620;18.786;2022-10-15T01:31:28;23.10;;;13.40;;
67757;SDS011;54562;47.620;18.786;2022-10-15T01:34:49;22.60;;;14.20;;
67757;SDS011;54562;47.620;18.786;2022-10-15T01:38:08;22.70;;;13.60;;
67757;SDS011;54562;47.620;18.786;2022-10-15T01:41:30;23.80;;;13.50;;
67757;SDS011;54562;47.620;18.786;2022-10-15T01:47:58;23.60;;;13.90;;
67757;SDS011;54562;47.620;18.786;2022-10-15T01:51:11;23.90;;;14.30;;
67757;SDS011;54562;47.620;18.786;2022-10-15T01:54:24;24.20;;;14.00;;
67757;SDS011;54562;47.620;18.786;2022-10-15T01:57:33;22.20;;;14.30;;
67757;SDS011;54562;47.620;18.786;2022-10-15T02:00:43;23.90;;;14.40;;
67757;SDS011;54562;47.620;18.786;2022-10-15T02:03:53;23.30;;;15.00;;
67757;SDS011;54562;47.620;18.786;2022-10-15T02:07:04;23.50;;;15.00;;
67757;SDS011;54562;47.620;18.786;2022-10-15T02:10:20;26.10;;;14.60;;
67757;SDS011;54562;47.620;18.786;2022-10-15T02:13:35;25.00;;;14.30;;
67757;SDS011;54562;47.620;18.786;2022-10-15T02:16:55;23.50;;;14.20;;
67757;SDS011;54562;47.620;18.786;2022-10-15T02:20:13;24.60;;;14.20;;
67757;SDS011;54562;47.620;18.786;2022-10-15T02:23:30;22.30;;;13.60;;
67757;SDS011;54562;47.620;18.786;2022-10-15T02:26:44;23.80;;;13.40;;
67757;SDS011;54562;47.620;18.786;2022-10-15T02:29:55;26.80;;;14.30;;
67757;SDS011;54562;47.620;18.786;2022-10-15T02:33:06;24.90;;;14.20;;
67757;SDS011;54562;47.620;18.786;2022-10-15T02:36:15;25.40;;;15.20;;
67757;SDS011;54562;47.620;18.786;2022-10-15T02:39:25;24.50;;;14.60;;
67757;SDS011;54562;47.620;18.786;2022-10-15T02:42:34;24.60;;;13.70;;
67757;SDS011;54562;47.620;18.786;2022-10-15T02:45:42;24.30;;;13.90;;
67757;SDS011;54562;47.620;18.786;2022-10-15T02:48:50;27.60;;;15.30;;
67757;SDS011;54562;47.620;18.786;2022-10-15T02:51:58;27.20;;;15.50;;
67757;SDS011;54562;47.620;18.786;2022-10-15T02:55:09;23.40;;;14.50;;
67757;SDS011;54562;47.620;18.786;2022-10-15T02:58:17;25.00;;;14.50;;
67757;SDS011;54562;47.620;18.786;2022-10-15T03:01:25;24.90;;;13.50;;
67757;SDS011;54562;47.620;18.786;2022-10-15T03:04:33;24.20;;;14.00;;
67757;SDS011;54562;47.620;18.786;2022-10-15T03:07:41;24.20;;;13.80;;
67757;SDS011;54562;47.620;18.786;2022-10-15T03:10:48;23.40;;;13.60;;
67757;SDS011;54562;47.620;18.786;2022-10-15T03:13:56;25.30;;;13.40;;
67757;SDS011;54562;47.620;18.786;2022-10-15T03:17:04;22.10;;;12.70;;
67757;SDS011;54562;47.620;18.786;2022-10-15T03:20:12;22.70;;;12.90;;
67757;SDS011;54562;47.620;18.786;2022-10-15T03:23:21;21.80;;;12.30;;
67757;SDS011;54562;47.620;18.786;2022-10-15T03:26:29;24.90;;;13.60;;
67757;SDS011;54562;47.620;18.786;2022-10-15T03:29:37;21.10;;;12.00;;
67757;SDS011;54562;47.620;18.786;2022-10-15T03:32:45;22.30;;;12.40;;
67757;SDS011;54562;47.620;18.786;2022-10-15T03:35:53;20.00;;;11.60;;
67757;SDS011;54562;47.620;18.786;2022-10-15T03:39:02;20.70;;;12.00;;
67757;SDS011;54562;47.620;18.786;2022-10-15T03:42:12;19.50;;;11.40;;
67757;SDS011;54562;47.620;18.786;2022-10-15T03:45:20;21.60;;;12.40;;
67757;SDS011;54562;47.620;18.786;2022-10-15T03:48:29;19.60;;;12.10;;
67757;SDS011;54562;47.620;18.786;2022-10-15T03:51:37;21.00;;;11.60;;
67757;SDS011;54562;47.620;18.786;2022-10-15T03:54:44;21.00;;;12.10;;
67757;SDS011;54562;47.620;18.786;2022-10-15T03:57:54;20.00;;;11.90;;
67757;SDS011;54562;47.620;18.786;2022-10-15T04:01:01;22.20;;;12.30;;
67757;SDS011;54562;47.620;18.786;2022-10-15T04:04:15;19.20;;;11.50;;
67757;SDS011;54562;47.620;18.786;2022-10-15T04:07:23;18.10;;;11.10;;
67757;SDS011;54562;47.620;18.786;2022-10-15T04:10:31;18.00;;;11.70;;
67757;SDS011;54562;47.620;18.786;2022-10-15T04:13:39;18.00;;;11.10;;
67757;SDS011;54562;47.620;18.786;2022-10-15T04:16:47;18.60;;;11.20;;
67757;SDS011;54562;47.620;18.786;2022-10-15T04:19:55;20.90;;;12.00;;
67757;SDS011;54562;47.620;18.786;2022-10-15T04:23:03;19.80;;;12.30;;
67757;SDS011;54562;47.620;18.786;2022-10-15T04:26:11;20.30;;;12.00;;
67757;SDS011;54562;47.620;18.786;2022-10-15T04:29:19;22.90;;;13.20;;
67757;SDS011;54562;47.620;18.786;2022-10-15T04:32:27;24.00;;;13.50;;
67757;SDS011;54562;47.620;18.786;2022-10-15T04:35:34;23.30;;;13.40;;
67757;SDS011;54562;47.620;18.786;2022-10-15T04:38:42;22.40;;;12.40;;
67757;SDS011;54562;47.620;18.786;2022-10-15T04:41:50;21.70;;;12.90;;
67757;SDS011;54562;47.620;18.786;2022-10-15T04:44:58;19.90;;;12.90;;
67757;SDS011;54562;47.620;18.786;2022-10-15T04:48:07;19.70;;;12.00;;
67757;SDS011;54562;47.620;18.786;2022-10-15T04:51:16;20.70;;;12.80;;
67757;SDS011;54562;47.620;18.786;2022-10-15T04:54:25;23.80;;;13.30;;
67757;SDS011;54562;47.620;18.786;2022-10-15T04:57:33;23.90;;;13.40;;
67757;SDS011;54562;47.620;18.786;2022-10-15T05:00:40;23.00;;;13.30;;
67757;SDS011;54562;47.620;18.786;2022-10-15T05:03:48;21.80;;;12.70;;
67757;SDS011;54562;47.620;18.786;2022-10-15T05:06:56;22.70;;;13.30;;
67757;SDS011;54562;47.620;18.786;2022-10-15T05:10:06;24.10;;;12.90;;
67757;SDS011;54562;47.620;18.786;2022-10-15T05:13:14;20.20;;;12.20;;
67757;SDS011;54562;47.620;18.786;2022-10-15T05:16:24;16.40;;;9.90;;
67757;SDS011;54562;47.620;18.786;2022-10-15T05:19:33;18.70;;;9.50;;
67757;SDS011;54562;47.620;18.786;2022-10-15T05:22:41;16.20;;;8.90;;
67757;SDS011;54562;47.620;18.786;2022-10-15T05:25:49;14.20;;;8.10;;
67757;SDS011;54562;47.620;18.786;2022-10-15T05:28:58;17.60;;;8.90;;
67757;SDS011;54562;47.620;18.786;2022-10-15T05:32:07;15.40;;;8.70;;
67757;SDS011;54562;47.620;18.786;2022-10-15T05:35:15;15.30;;;8.40;;
67757;SDS011;54562;47.620;18.786;2022-10-15T05:38:23;16.60;;;8.70;;
67757;SDS011;54562;47.620;18.786;2022-10-15T05:41:31;16.00;;;8.80;;
67757;SDS011;54562;47.620;18.786;2022-10-15T05:44:39;16.00;;;8.60;;
67757;SDS011;54562;47.620;18.786;2022-10-15T05:47:47;17.20;;;8.60;;
67757;SDS011;54562;47.620;18.786;2022-10-15T05:51:02;15.10;;;8.60;;
67757;SDS011;54562;47.620;18.786;2022-10-15T05:54:12;15.60;;;8.60;;
67757;SDS011;54562;47.620;18.786;2022-10-15T05:57:20;15.50;;;8.70;;
67757;SDS011;54562;47.620;18.786;2022-10-15T06:00:28;15.10;;;8.80;;
67757;SDS011;54562;47.620;18.786;2022-10-15T06:03:36;15.30;;;9.20;;
67757;SDS011;54562;47.620;18.786;2022-10-15T06:06:45;17.60;;;9.50;;
67757;SDS011;54562;47.620;18.786;2022-10-15T06:09:53;16.60;;;9.80;;
67757;SDS011;54562;47.620;18.786;2022-10-15T06:13:01;14.40;;;8.80;;
67757;SDS011;54562;47.620;18.786;2022-10-15T06:16:10;17.50;;;8.10;;
67757;SDS011;54562;47.620;18.786;2022-10-15T06:19:26;12.80;;;7.90;;
67757;SDS011;54562;47.620;18.786;2022-10-15T06:22:34;17.20;;;9.90;;
67757;SDS011;54562;47.620;18.786;2022-10-15T06:25:42;20.90;;;10.80;;
67757;SDS011;54562;47.620;18.786;2022-10-15T06:28:50;16.80;;;10.70;;
67757;SDS011;54562;47.620;18.786;2022-10-15T06:31:59;21.30;;;10.90;;
67757;SDS011;54562;47.620;18.786;2022-10-15T06:35:08;21.10;;;11.30;;
67757;SDS011;54562;47.620;18.786;2022-10-15T06:38:15;19.10;;;11.60;;
67757;SDS011;54562;47.620;18.786;2022-10-15T06:41:24;21.40;;;12.30;;
67757;SDS011;54562;47.620;18.786;2022-10-15T06:44:34;21.80;;;11.50;;
67757;SDS011;54562;47.620;18.786;2022-10-15T06:47:42;21.20;;;11.50;;
67757;SDS011;54562;47.620;18.786;2022-10-15T06:50:51;19.20;;;11.30;;
67757;SDS011;54562;47.620;18.786;2022-10-15T06:53:59;19.10;;;11.00;;
67757;SDS011;54562;47.620;18.786;2022-10-15T06:57:06;19.30;;;10.90;;
67757;SDS011;54562;47.620;18.786;2022-10-15T07:00:15;19.30;;;12.30;;
67757;SDS011;54562;47.620;18.786;2022-10-15T07:03:23;19.50;;;12.10;;
67757;SDS011;54562;47.620;18.786;2022-10-15T07:06:32;20.10;;;11.50;;
67757;SDS011;54562;47.620;18.786;2022-10-15T07:09:40;20.10;;;11.60;;
67757;SDS011;54562;47.620;18.786;2022-10-15T07:15:57;21.60;;;10.90;;
67757;SDS011;54562;47.620;18.786;2022-10-15T07:19:10;16.80;;;10.10;;
67757;SDS011;54562;47.620;18.786;2022-10-15T07:22:18;15.20;;;8.70;;
67757;SDS011;54562;47.620;18.786;2022-10-15T07:25:27;15.10;;;8.70;;
67757;SDS011;54562;47.620;18.786;2022-10-15T07:30:02;13.30;;;8.20;;
67757;SDS011;54562;47.620;18.786;2022-10-15T07:33:14;14.40;;;7.80;;
67757;SDS011;54562;47.620;18.786;2022-10-15T07:36:22;14.10;;;8.60;;
67757;SDS011;54562;47.620;18.786;2022-10-15T07:39:30;12.70;;;7.60;;
67757;SDS011;54562;47.620;18.786;2022-10-15T07:42:45;13.10;;;7.70;;
67757;SDS011;54562;47.620;18.786;2022-10-15T07:46:00;13.60;;;8.30;;
67757;SDS011;54562;47.620;18.786;2022-10-15T07:49:09;14.80;;;8.20;;
67757;SDS011;54562;47.620;18.786;2022-10-15T07:52:17;14.90;;;8.10;;
67757;SDS011;54562;47.620;18.786;2022-10-15T07:55:26;17.00;;;8.60;;
67757;SDS011;54562;47.620;18.786;2022-10-15T07:58:34;14.10;;;8.80;;
67757;SDS011;54562;47.620;18.786;2022-10-15T08:01:43;13.10;;;8.40;;
67757;SDS011;54562;47.620;18.786;2022-10-15T08:04:54;14.90;;;8.50;;
67757;SDS011;54562;47.620;18.786;2022-10-15T08:08:03;17.20;;;9.40;;
67757;SDS011;54562;47.620;18.786;2022-10-15T08:11:13;15.70;;;9.50;;
67757;SDS011;54562;47.620;18.786;2022-10-15T08:14:22;16.50;;;9.80;;
67757;SDS011;54562;47.620;18.786;2022-10-15T08:17:29;15.30;;;8.80;;
67757;SDS011;54562;47.620;18.786;2022-10-15T08:20:38;14.90;;;8.70;;
67757;SDS011;54562;47.620;18.786;2022-10-15T08:23:46;17.30;;;9.00;;
67757;SDS011;54562;47.620;18.786;2022-10-15T08:26:55;13.50;;;7.60;;
67757;SDS011;54562;47.620;18.786;2022-10-15T08:30:04;14.90;;;8.50;;
67757;SDS011;54562;47.620;18.786;2022-10-15T08:33:14;15.10;;;8.20;;
67757;SDS011;54562;47.620;18.786;2022-10-15T08:36:21;15.90;;;8.50;;
67757;SDS011;54562;47.620;18.786;2022-10-15T08:39:29;15.40;;;8.70;;
67757;SDS011;54562;47.620;18.786;2022-10-15T08:42:39;15.00;;;9.00;;
67757;SDS011;54562;47.620;18.786;2022-10-15T08:45:51;15.80;;;8.50;;
67757;SDS011;54562;47.620;18.786;2022-10-15T08:49:04;14.90;;;8.50;;
67757;SDS011;54562;47.620;18.786;2022-10-15T08:52:23;15.10;;;9.30;;
67757;SDS011;54562;47.620;18.786;2022-10-15T08:55:39;14.50;;;8.90;;
67757;SDS011;54562;47.620;18.786;2022-10-15T08:58:58;15.40;;;8.80;;
67757;SDS011;54562;47.620;18.786;2022-10-15T09:02:16;13.90;;;8.30;;
67757;SDS011;54562;47.620;18.786;2022-10-15T09:05:37;17.80;;;7.90;;
67757;SDS011;54562;47.620;18.786;2022-10-15T09:08:55;14.60;;;8.10;;
67757;SDS011;54562;47.620;18.786;2022-10-15T09:12:28;14.60;;;7.90;;
67757;SDS011;54562;47.620;18.786;2022-10-15T09:15:51;13.60;;;7.50;;
67757;SDS011;54562;47.620;18.786;2022-10-15T09:19:11;15.90;;;8.20;;
67757;SDS011;54562;47.620;18.786;2022-10-15T09:22:25;11.60;;;7.70;;
67757;SDS011;54562;47.620;18.786;2022-10-15T09:25:36;11.90;;;6.10;;
67757;SDS011;54562;47.620;18.786;2022-10-15T09:28:54;13.20;;;7.60;;
67757;SDS011;54562;47.620;18.786;2022-10-15T09:32:14;12.20;;;7.50;;
67757;SDS011;54562;47.620;18.786;2022-10-15T09:35:31;13.80;;;8.50;;
67757;SDS011;54562;47.620;18.786;2022-10-15T09:38:51;14.10;;;7.60;;
67757;SDS011;54562;47.620;18.786;2022-10-15T09:42:15;12.90;;;7.60;;
67757;SDS011;54562;47.620;18.786;2022-10-15T09:45:32;12.20;;;7.40;;
67757;SDS011;54562;47.620;18.786;2022-10-15T09:48:42;12.10;;;7.50;;
67757;SDS011;54562;47.620;18.786;2022-10-15T09:52:00;12.90;;;7.10;;
67757;SDS011;54562;47.620;18.786;2022-10-15T09:55:23;17.50;;;7.20;;
67757;SDS011;54562;47.620;18.786;2022-10-15T09:58:51;12.10;;;7.00;;
67757;SDS011;54562;47.620;18.786;2022-10-15T10:02:03;13.10;;;7.40;;
67757;SDS011;54562;47.620;18.786;2022-10-15T10:05:30;17.30;;;7.60;;
67757;SDS011;54562;47.620;18.786;2022-10-15T10:08:45;14.50;;;7.40;;
67757;SDS011;54562;47.620;18.786;2022-10-15T10:11:57;13.00;;;7.30;;
67757;SDS011;54562;47.620;18.786;2022-10-15T10:15:22;14.10;;;7.80;;
67757;SDS011;54562;47.620;18.786;2022-10-15T10:18:36;13.90;;;7.90;;
67757;SDS011;54562;47.620;18.786;2022-10-15T10:21:44;13.40;;;7.60;;
67757;SDS011;54562;47.620;18.786;2022-10-15T10:24:52;14.10;;;7.80;;
67757;SDS011;54562;47.620;18.786;2022-10-15T10:28:13;13.50;;;8.00;;
67757;SDS011;54562;47.620;18.786;2022-10-15T10:31:30;25.30;;;14.20;;
67757;SDS011;54562;47.620;18.786;2022-10-15T10:34:52;19.70;;;9.90;;
67757;SDS011;54562;47.620;18.786;2022-10-15T10:38:29;34.30;;;20.90;;
67757;SDS011;54562;47.620;18.786;2022-10-15T10:42:05;17.90;;;10.90;;
67757;SDS011;54562;47.620;18.786;2022-10-15T10:45:28;16.70;;;8.10;;
67757;SDS011;54562;47.620;18.786;2022-10-15T10:51:53;11.40;;;7.60;;
67757;SDS011;54562;47.620;18.786;2022-10-15T10:55:04;13.30;;;8.20;;
67757;SDS011;54562;47.620;18.786;2022-10-15T10:58:21;12.30;;;6.90;;
67757;SDS011;54562;47.620;18.786;2022-10-15T11:01:32;13.20;;;7.30;;
67757;SDS011;54562;47.620;18.786;2022-10-15T11:04:40;13.80;;;6.80;;
67757;SDS011;54562;47.620;18.786;2022-10-15T11:07:52;12.30;;;6.30;;
67757;SDS011;54562;47.620;18.786;2022-10-15T11:11:14;11.00;;;6.20;;
67757;SDS011;54562;47.620;18.786;2022-10-15T11:14:36;13.30;;;7.30;;
67757;SDS011;54562;47.620;18.786;2022-10-15T11:17:58;11.80;;;6.60;;
67757;SDS011;54562;47.620;18.786;2022-10-15T11:21:21;14.00;;;6.30;;
67757;SDS011;54562;47.620;18.786;2022-10-15T11:24:40;11.70;;;6.40;;
67757;SDS011;54562;47.620;18.786;2022-10-15T11:28:20;17.70;;;7.10;;
67757;SDS011;54562;47.620;18.786;2022-10-15T11:31:40;11.10;;;6.10;;
67757;SDS011;54562;47.620;18.786;2022-10-15T11:35:30;11.80;;;6.40;;
67757;SDS011;54562;47.620;18.786;2022-10-15T11:39:12;11.70;;;6.40;;
67757;SDS011;54562;47.620;18.786;2022-10-15T11:42:34;10.30;;;5.60;;
67757;SDS011;54562;47.620;18.786;2022-10-15T11:46:04;12.10;;;6.30;;
67757;SDS011;54562;47.620;18.786;2022-10-15T11:49:28;9.10;;;5.60;;
67757;SDS011;54562;47.620;18.786;2022-10-15T11:52:55;10.40;;;6.00;;
67757;SDS011;54562;47.620;18.786;2022-10-15T11:56:15;13.20;;;6.00;;
67757;SDS011;54562;47.620;18.786;2022-10-15T11:59:34;10.00;;;5.70;;
67757;SDS011;54562;47.620;18.786;2022-10-15T12:02:46;11.00;;;5.80;;
67757;SDS011;54562;47.620;18.786;2022-10-15T12:05:57;11.90;;;5.50;;
67757;SDS011;54562;47.620;18.786;2022-10-15T12:09:12;12.20;;;5.70;;
67757;SDS011;54562;47.620;18.786;2022-10-15T12:12:36;10.00;;;5.30;;
67757;SDS011;54562;47.620;18.786;2022-10-15T12:19:06;10.70;;;5.50;;
67757;SDS011;54562;47.620;18.786;2022-10-15T12:22:34;11.10;;;5.50;;
67757;SDS011;54562;47.620;18.786;2022-10-15T12:25:45;12.90;;;6.70;;
67757;SDS011;54562;47.620;18.786;2022-10-15T12:28:56;13.40;;;6.00;;
67757;SDS011;54562;47.620;18.786;2022-10-15T12:32:22;10.60;;;5.40;;
67757;SDS011;54562;47.620;18.786;2022-10-15T12:35:37;12.10;;;5.20;;
67757;SDS011;54562;47.620;18.786;2022-10-15T12:38:54;9.70;;;5.60;;
67757;SDS011;54562;47.620;18.786;2022-10-15T12:42:04;11.50;;;5.50;;
67757;SDS011;54562;47.620;18.786;2022-10-15T12:45:35;12.20;;;5.50;;
67757;SDS011;54562;47.620;18.786;2022-10-15T12:48:46;13.70;;;5.60;;
67757;SDS011;54562;47.620;18.786;2022-10-15T12:51:58;9.00;;;5.30;;
67757;SDS011;54562;47.620;18.786;2022-10-15T12:55:30;13.80;;;5.70;;
67757;SDS011;54562;47.620;18.786;2022-10-15T12:58:41;10.50;;;5.20;;
67757;SDS011;54562;47.620;18.786;2022-10-15T13:05:00;10.90;;;5.30;;
67757;SDS011;54562;47.620;18.786;2022-10-15T13:08:13;9.40;;;5.20;;
67757;SDS011;54562;47.620;18.786;2022-10-15T13:11:29;8.80;;;5.10;;
67757;SDS011;54562;47.620;18.786;2022-10-15T13:14:46;13.60;;;5.00;;
67757;SDS011;54562;47.620;18.786;2022-10-15T13:18:04;10.20;;;5.00;;
67757;SDS011;54562;47.620;18.786;2022-10-15T13:21:16;13.00;;;5.70;;
67757;SDS011;54562;47.620;18.786;2022-10-15T13:24:26;10.90;;;5.20;;
67757;SDS011;54562;47.620;18.786;2022-10-15T13:27:36;11.10;;;5.10;;
67757;SDS011;54562;47.620;18.786;2022-10-15T13:30:51;9.80;;;5.10;;
67757;SDS011;54562;47.620;18.786;2022-10-15T13:34:01;8.20;;;4.60;;
67757;SDS011;54562;47.620;18.786;2022-10-15T13:37:18;12.10;;;5.10;;
67757;SDS011;54562;47.620;18.786;2022-10-15T13:40:30;9.90;;;5.30;;
67757;SDS011;54562;47.620;18.786;2022-10-15T13:43:38;15.00;;;4.90;;
67757;SDS011;54562;47.620;18.786;2022-10-15T13:47:02;8.40;;;4.50;;
67757;SDS011;54562;47.620;18.786;2022-10-15T13:50:24;10.90;;;4.80;;
67757;SDS011;54562;47.620;18.786;2022-10-15T13:53:35;11.10;;;5.30;;
67757;SDS011;54562;47.620;18.786;2022-10-15T13:56:51;11.50;;;5.20;;
67757;SDS011;54562;47.620;18.786;2022-10-15T14:00:02;12.30;;;4.90;;
67757;SDS011;54562;47.620;18.786;2022-10-15T14:03:18;13.90;;;5.00;;
67757;SDS011;54562;47.620;18.786;2022-10-15T14:06:29;11.30;;;4.70;;
67757;SDS011;54562;47.620;18.786;2022-10-15T14:09:40;13.50;;;5.00;;
67757;SDS011;54562;47.620;18.786;2022-10-15T14:12:52;12.70;;;4.80;;
67757;SDS011;54562;47.620;18.786;2022-10-15T14:16:13;8.40;;;5.00;;
67757;SDS011;54562;47.620;18.786;2022-10-15T14:19:25;8.30;;;4.70;;
67757;SDS011;54562;47.620;18.786;2022-10-15T14:22:35;8.00;;;4.40;;
67757;SDS011;54562;47.620;18.786;2022-10-15T14:25:44;12.50;;;5.00;;
67757;SDS011;54562;47.620;18.786;2022-10-15T14:28:59;9.70;;;4.80;;
67757;SDS011;54562;47.620;18.786;2022-10-15T14:32:25;9.60;;;4.70;;
67757;SDS011;54562;47.620;18.786;2022-10-15T14:35:35;10.00;;;5.10;;
67757;SDS011;54562;47.620;18.786;2022-10-15T14:38:44;8.50;;;4.10;;
67757;SDS011;54562;47.620;18.786;2022-10-15T14:42:03;9.10;;;4.70;;
67757;SDS011;54562;47.620;18.786;2022-10-15T14:45:18;11.80;;;4.80;;
67757;SDS011;54562;47.620;18.786;2022-10-15T14:48:36;11.20;;;4.30;;
67757;SDS011;54562;47.620;18.786;2022-10-15T14:51:53;12.00;;;4.50;;
67757;SDS011;54562;47.620;18.786;2022-10-15T14:55:06;9.10;;;4.40;;
67757;SDS011;54562;47.620;18.786;2022-10-15T14:58:20;10.50;;;4.60;;
67757;SDS011;54562;47.620;18.786;2022-10-15T15:01:30;7.10;;;4.10;;
67757;SDS011;54562;47.620;18.786;2022-10-15T15:04:50;12.10;;;5.00;;
67757;SDS011;54562;47.620;18.786;2022-10-15T15:08:11;10.80;;;4.50;;
67757;SDS011;54562;47.620;18.786;2022-10-15T15:11:22;8.90;;;4.70;;
67757;SDS011;54562;47.620;18.786;2022-10-15T15:14:31;9.60;;;4.70;;
67757;SDS011;54562;47.620;18.786;2022-10-15T15:17:39;7.80;;;4.80;;
67757;SDS011;54562;47.620;18.786;2022-10-15T15:20:49;7.60;;;4.40;;
67757;SDS011;54562;47.620;18.786;2022-10-15T15:23:57;13.00;;;4.40;;
67757;SDS011;54562;47.620;18.786;2022-10-15T15:27:06;9.60;;;4.70;;
67757;SDS011;54562;47.620;18.786;2022-10-15T15:30:20;10.30;;;5.00;;
67757;SDS011;54562;47.620;18.786;2022-10-15T15:33:29;9.50;;;4.80;;
67757;SDS011;54562;47.620;18.786;2022-10-15T15:36:38;10.20;;;4.50;;
67757;SDS011;54562;47.620;18.786;2022-10-15T15:39:47;9.10;;;5.00;;
67757;SDS011;54562;47.620;18.786;2022-10-15T15:42:56;9.50;;;5.00;;
67757;SDS011;54562;47.620;18.786;2022-10-15T15:46:04;9.20;;;4.80;;
67757;SDS011;54562;47.620;18.786;2022-10-15T15:49:12;11.60;;;5.40;;
67757;SDS011;54562;47.620;18.786;2022-10-15T15:52:21;9.50;;;5.00;;
67757;SDS011;54562;47.620;18.786;2022-10-15T15:55:29;13.30;;;5.30;;
67757;SDS011;54562;47.620;18.786;2022-10-15T15:58:37;12.50;;;5.40;;
67757;SDS011;54562;47.620;18.786;2022-10-15T16:01:46;13.80;;;5.40;;
67757;SDS011;54562;47.620;18.786;2022-10-15T16:04:54;10.30;;;5.50;;
67757;SDS011;54562;47.620;18.786;2022-10-15T16:08:03;11.30;;;5.30;;
67757;SDS011;54562;47.620;18.786;2022-10-15T16:11:12;10.80;;;5.30;;
67757;SDS011;54562;47.620;18.786;2022-10-15T16:14:21;10.60;;;5.60;;
67757;SDS011;54562;47.620;18.786;2022-10-15T16:17:29;9.20;;;5.50;;
67757;SDS011;54562;47.620;18.786;2022-10-15T16:20:37;11.40;;;5.70;;
67757;SDS011;54562;47.620;18.786;2022-10-15T16:23:52;10.40;;;5.30;;
67757;SDS011;54562;47.620;18.786;2022-10-15T16:27:00;8.90;;;5.10;;
67757;SDS011;54562;47.620;18.786;2022-10-15T16:30:10;12.20;;;5.50;;
67757;SDS011;54562;47.620;18.786;2022-10-15T16:33:18;9.80;;;5.10;;
67757;SDS011;54562;47.620;18.786;2022-10-15T16:36:26;10.40;;;5.50;;
67757;SDS011;54562;47.620;18.786;2022-10-15T16:39:36;12.30;;;5.30;;
67757;SDS011;54562;47.620;18.786;2022-10-15T16:42:44;8.90;;;5.00;;
67757;SDS011;54562;47.620;18.786;2022-10-15T16:45:56;10.60;;;5.60;;
67757;SDS011;54562;47.620;18.786;2022-10-15T16:49:05;8.80;;;4.90;;
67757;SDS011;54562;47.620;18.786;2022-10-15T16:52:13;9.90;;;5.50;;
67757;SDS011;54562;47.620;18.786;2022-10-15T16:55:22;10.80;;;5.30;;
67757;SDS011;54562;47.620;18.786;2022-10-15T16:58:30;10.30;;;5.80;;
67757;SDS011;54562;47.620;18.786;2022-10-15T17:01:38;12.00;;;5.10;;
67757;SDS011;54562;47.620;18.786;2022-10-15T17:08:20;12.20;;;5.50;;
67757;SDS011;54562;47.620;18.786;2022-10-15T17:11:32;9.80;;;5.70;;
67757;SDS011;54562;47.620;18.786;2022-10-15T17:14:42;11.90;;;5.20;;
67757;SDS011;54562;47.620;18.786;2022-10-15T17:17:56;12.90;;;6.20;;
67757;SDS011;54562;47.620;18.786;2022-10-15T17:21:05;11.50;;;6.10;;
67757;SDS011;54562;47.620;18.786;2022-10-15T17:24:17;16.00;;;8.00;;
67757;SDS011;54562;47.620;18.786;2022-10-15T17:27:27;20.40;;;10.10;;
67757;SDS011;54562;47.620;18.786;2022-10-15T17:30:36;13.70;;;7.40;;
67757;SDS011;54562;47.620;18.786;2022-10-15T17:33:45;13.80;;;7.20;;
67757;SDS011;54562;47.620;18.786;2022-10-15T17:36:54;11.80;;;5.70;;
67757;SDS011;54562;47.620;18.786;2022-10-15T17:40:03;16.90;;;6.70;;
67757;SDS011;54562;47.620;18.786;2022-10-15T17:43:13;12.90;;;7.30;;
67757;SDS011;54562;47.620;18.786;2022-10-15T17:46:23;10.60;;;5.30;;
67757;SDS011;54562;47.620;18.786;2022-10-15T17:49:32;9.00;;;5.20;;
67757;SDS011;54562;47.620;18.786;2022-10-15T17:52:40;10.40;;;5.60;;
67757;SDS011;54562;47.620;18.786;2022-10-15T17:55:49;9.60;;;5.40;;
67757;SDS011;54562;47.620;18.786;2022-10-15T17:58:57;11.30;;;5.20;;
67757;SDS011;54562;47.620;18.786;2022-10-15T18:02:11;12.00;;;5.50;;
67757;SDS011;54562;47.620;18.786;2022-10-15T18:05:26;9.80;;;5.70;;
67757;SDS011;54562;47.620;18.786;2022-10-15T18:08:36;8.40;;;5.00;;
67757;SDS011;54562;47.620;18.786;2022-10-15T18:11:45;9.70;;;5.30;;
67757;SDS011;54562;47.620;18.786;2022-10-15T18:14:54;8.60;;;4.20;;
67757;SDS011;54562;47.620;18.786;2022-10-15T18:18:03;11.30;;;4.90;;
67757;SDS011;54562;47.620;18.786;2022-10-15T18:21:12;9.80;;;4.80;;
67757;SDS011;54562;47.620;18.786;2022-10-15T18:24:22;9.90;;;4.90;;
67757;SDS011;54562;47.620;18.786;2022-10-15T18:27:30;11.70;;;5.50;;
67757;SDS011;54562;47.620;18.786;2022-10-15T18:30:40;10.40;;;5.20;;
67757;SDS011;54562;47.620;18.786;2022-10-15T18:36:59;9.90;;;5.20;;
67757;SDS011;54562;47.620;18.786;2022-10-15T18:40:10;9.70;;;5.10;;
67757;SDS011;54562;47.620;18.786;2022-10-15T18:43:18;11.20;;;5.60;;
67757;SDS011;54562;47.620;18.786;2022-10-15T18:46:27;13.70;;;5.00;;
67757;SDS011;54562;47.620;18.786;2022-10-15T18:49:37;8.80;;;5.20;;
67757;SDS011;54562;47.620;18.786;2022-10-15T18:52:47;10.00;;;5.40;;
67757;SDS011;54562;47.620;18.786;2022-10-15T18:55:55;12.40;;;5.60;;
67757;SDS011;54562;47.620;18.786;2022-10-15T19:02:13;11.00;;;5.50;;
67757;SDS011;54562;47.620;18.786;2022-10-15T19:05:21;10.10;;;5.40;;
67757;SDS011;54562;47.620;18.786;2022-10-15T19:08:29;14.60;;;6.10;;
67757;SDS011;54562;47.620;18.786;2022-10-15T19:11:39;9.70;;;5.50;;
67757;SDS011;54562;47.620;18.786;2022-10-15T19:14:48;10.60;;;5.70;;